Pricedale, Pennsylvania
Current Conditions -  °F | °C
As of 8:53 PM on Saturday 25 Oct 2014 (Local Time) from KAGC Reporting Station
Broken Clouds Broken Clouds  
Wind Chill: 17°   Ceiling: 6000
Heat Index: 17°   Visibility: 10mi
Dew Point:   Wind: 16mph
Humidity: 62%   Direction: 230°SW
Pressure: 29.74"   Gusts: 24mph
Location:  40.13°N, 79.84°W
Report Text: KAGC 260053Z 23014G21KT 10SM FEW046 BKN060 17/09 A2974 RMK AO2 SLP075 T01670094
Loading
Personal Weather Stations






























Interactive Weather Map
Tropical Storm Tracking
New forecast layout! Learn more

10-Day Weather Forecast

Advertisements
Track Severe Weather on mobile